sensor_id;sensor_type;location;lat;lon;timestamp;P1;durP1;ratioP1;P2;durP2;ratioP2
75426;SDS011;64007;50.632;13.700;2023-04-15T00:00:50;0.20;;;0.20;;
75426;SDS011;64007;50.632;13.700;2023-04-15T00:03:16;0.57;;;0.28;;
75426;SDS011;64007;50.632;13.700;2023-04-15T00:05:43;0.10;;;0.10;;
75426;SDS011;64007;50.632;13.700;2023-04-15T00:08:09;0.20;;;0.20;;
75426;SDS011;64007;50.632;13.700;2023-04-15T00:10:34;0.43;;;0.22;;
75426;SDS011;64007;50.632;13.700;2023-04-15T00:13:00;0.45;;;0.35;;
75426;SDS011;64007;50.632;13.700;2023-04-15T00:15:27;0.20;;;0.20;;
75426;SDS011;64007;50.632;13.700;2023-04-15T00:17:52;0.20;;;0.20;;
75426;SDS011;64007;50.632;13.700;2023-04-15T00:20:18;0.30;;;0.30;;
75426;SDS011;64007;50.632;13.700;2023-04-15T00:22:44;0.10;;;0.10;;
75426;SDS011;64007;50.632;13.700;2023-04-15T00:25:10;0.32;;;0.22;;
75426;SDS011;64007;50.632;13.700;2023-04-15T00:27:36;0.40;;;0.35;;
75426;SDS011;64007;50.632;13.700;2023-04-15T00:30:03;0.30;;;0.30;;
75426;SDS011;64007;50.632;13.700;2023-04-15T00:32:29;0.70;;;0.30;;
75426;SDS011;64007;50.632;13.700;2023-04-15T00:34:55;0.38;;;0.30;;
75426;SDS011;64007;50.632;13.700;2023-04-15T00:37:21;0.60;;;0.32;;
75426;SDS011;64007;50.632;13.700;2023-04-15T00:39:47;2.55;;;0.70;;
75426;SDS011;64007;50.632;13.700;2023-04-15T00:42:13;1.13;;;0.80;;
75426;SDS011;64007;50.632;13.700;2023-04-15T00:44:40;1.00;;;0.40;;
75426;SDS011;64007;50.632;13.700;2023-04-15T00:47:05;2.05;;;0.80;;
75426;SDS011;64007;50.632;13.700;2023-04-15T00:49:31;2.10;;;0.70;;
75426;SDS011;64007;50.632;13.700;2023-04-15T00:51:57;5.25;;;0.40;;
75426;SDS011;64007;50.632;13.700;2023-04-15T00:54:23;0.25;;;0.20;;
75426;SDS011;64007;50.632;13.700;2023-04-15T00:56:48;0.65;;;0.30;;
75426;SDS011;64007;50.632;13.700;2023-04-15T00:59:14;0.20;;;0.20;;
75426;SDS011;64007;50.632;13.700;2023-04-15T01:01:41;0.20;;;0.20;;
75426;SDS011;64007;50.632;13.700;2023-04-15T01:04:09;2.55;;;0.22;;
75426;SDS011;64007;50.632;13.700;2023-04-15T01:06:35;1.95;;;0.50;;
75426;SDS011;64007;50.632;13.700;2023-04-15T01:09:01;0.93;;;0.60;;
75426;SDS011;64007;50.632;13.700;2023-04-15T01:11:27;4.07;;;0.50;;
75426;SDS011;64007;50.632;13.700;2023-04-15T01:13:54;0.40;;;0.40;;
75426;SDS011;64007;50.632;13.700;2023-04-15T01:16:21;0.68;;;0.25;;
75426;SDS011;64007;50.632;13.700;2023-04-15T01:18:47;0.35;;;0.35;;
75426;SDS011;64007;50.632;13.700;2023-04-15T01:21:13;0.13;;;0.13;;
75426;SDS011;64007;50.632;13.700;2023-04-15T01:23:39;0.20;;;0.13;;
75426;SDS011;64007;50.632;13.700;2023-04-15T01:26:05;0.10;;;0.10;;
75426;SDS011;64007;50.632;13.700;2023-04-15T01:28:35;0.10;;;0.10;;
75426;SDS011;64007;50.632;13.700;2023-04-15T01:31:08;0.20;;;0.20;;
75426;SDS011;64007;50.632;13.700;2023-04-15T01:33:36;0.05;;;0.05;;
75426;SDS011;64007;50.632;13.700;2023-04-15T01:36:02;0.25;;;0.10;;
75426;SDS011;64007;50.632;13.700;2023-04-15T01:38:29;0.00;;;0.00;;
75426;SDS011;64007;50.632;13.700;2023-04-15T01:40:56;0.00;;;0.00;;
75426;SDS011;64007;50.632;13.700;2023-04-15T01:43:22;0.20;;;0.20;;
75426;SDS011;64007;50.632;13.700;2023-04-15T01:45:48;0.30;;;0.20;;
75426;SDS011;64007;50.632;13.700;2023-04-15T01:48:14;0.30;;;0.20;;
75426;SDS011;64007;50.632;13.700;2023-04-15T01:50:39;0.20;;;0.20;;
75426;SDS011;64007;50.632;13.700;2023-04-15T01:53:05;0.22;;;0.20;;
75426;SDS011;64007;50.632;13.700;2023-04-15T01:55:31;0.22;;;0.20;;
75426;SDS011;64007;50.632;13.700;2023-04-15T01:57:57;0.10;;;0.10;;
75426;SDS011;64007;50.632;13.700;2023-04-15T02:00:22;0.10;;;0.10;;
75426;SDS011;64007;50.632;13.700;2023-04-15T02:02:48;0.08;;;0.08;;
75426;SDS011;64007;50.632;13.700;2023-04-15T02:05:14;0.10;;;0.10;;
75426;SDS011;64007;50.632;13.700;2023-04-15T02:07:44;0.05;;;0.05;;
75426;SDS011;64007;50.632;13.700;2023-04-15T02:10:10;0.20;;;0.20;;
75426;SDS011;64007;50.632;13.700;2023-04-15T02:12:38;0.10;;;0.10;;
75426;SDS011;64007;50.632;13.700;2023-04-15T02:15:04;0.00;;;0.00;;
75426;SDS011;64007;50.632;13.700;2023-04-15T02:17:32;0.00;;;0.00;;
75426;SDS011;64007;50.632;13.700;2023-04-15T02:19:59;1.10;;;0.10;;
75426;SDS011;64007;50.632;13.700;2023-04-15T02:22:25;0.30;;;0.25;;
75426;SDS011;64007;50.632;13.700;2023-04-15T02:24:50;0.10;;;0.10;;
75426;SDS011;64007;50.632;13.700;2023-04-15T02:27:16;0.10;;;0.10;;
75426;SDS011;64007;50.632;13.700;2023-04-15T02:29:43;0.00;;;0.00;;
75426;SDS011;64007;50.632;13.700;2023-04-15T02:32:10;0.10;;;0.10;;
75426;SDS011;64007;50.632;13.700;2023-04-15T02:34:37;0.20;;;0.20;;
75426;SDS011;64007;50.632;13.700;2023-04-15T02:37:09;0.20;;;0.20;;
75426;SDS011;64007;50.632;13.700;2023-04-15T02:39:35;0.10;;;0.10;;
75426;SDS011;64007;50.632;13.700;2023-04-15T02:42:01;0.10;;;0.10;;
75426;SDS011;64007;50.632;13.700;2023-04-15T02:44:27;0.05;;;0.00;;
75426;SDS011;64007;50.632;13.700;2023-04-15T02:46:53;0.05;;;0.05;;
75426;SDS011;64007;50.632;13.700;2023-04-15T02:49:19;0.17;;;0.17;;
75426;SDS011;64007;50.632;13.700;2023-04-15T02:51:46;0.10;;;0.10;;
75426;SDS011;64007;50.632;13.700;2023-04-15T02:54:20;0.10;;;0.10;;
75426;SDS011;64007;50.632;13.700;2023-04-15T02:56:47;0.20;;;0.20;;
75426;SDS011;64007;50.632;13.700;2023-04-15T02:59:14;0.10;;;0.10;;
75426;SDS011;64007;50.632;13.700;2023-04-15T03:01:40;0.20;;;0.20;;
75426;SDS011;64007;50.632;13.700;2023-04-15T03:04:05;0.22;;;0.22;;
75426;SDS011;64007;50.632;13.700;2023-04-15T03:06:33;0.70;;;0.10;;
75426;SDS011;64007;50.632;13.700;2023-04-15T03:08:59;0.10;;;0.10;;
75426;SDS011;64007;50.632;13.700;2023-04-15T03:11:27;0.20;;;0.20;;
75426;SDS011;64007;50.632;13.700;2023-04-15T03:13:53;0.20;;;0.20;;
75426;SDS011;64007;50.632;13.700;2023-04-15T03:16:20;0.52;;;0.30;;
75426;SDS011;64007;50.632;13.700;2023-04-15T03:18:45;0.20;;;0.20;;
75426;SDS011;64007;50.632;13.700;2023-04-15T03:21:11;0.30;;;0.30;;
75426;SDS011;64007;50.632;13.700;2023-04-15T03:23:37;0.47;;;0.30;;
75426;SDS011;64007;50.632;13.700;2023-04-15T03:26:03;1.02;;;0.30;;
75426;SDS011;64007;50.632;13.700;2023-04-15T03:28:29;5.63;;;1.02;;
75426;SDS011;64007;50.632;13.700;2023-04-15T03:30:55;4.80;;;0.90;;
75426;SDS011;64007;50.632;13.700;2023-04-15T03:33:21;4.63;;;0.88;;
75426;SDS011;64007;50.632;13.700;2023-04-15T03:35:47;2.65;;;0.70;;
75426;SDS011;64007;50.632;13.700;2023-04-15T03:38:12;4.18;;;0.80;;
75426;SDS011;64007;50.632;13.700;2023-04-15T03:40:41;2.00;;;0.60;;
75426;SDS011;64007;50.632;13.700;2023-04-15T03:43:07;6.93;;;2.90;;
75426;SDS011;64007;50.632;13.700;2023-04-15T03:45:32;5.15;;;1.30;;
75426;SDS011;64007;50.632;13.700;2023-04-15T03:47:58;5.53;;;0.90;;
75426;SDS011;64007;50.632;13.700;2023-04-15T03:50:24;6.03;;;0.75;;
75426;SDS011;64007;50.632;13.700;2023-04-15T03:52:50;7.10;;;0.85;;
75426;SDS011;64007;50.632;13.700;2023-04-15T03:55:15;4.32;;;0.90;;
75426;SDS011;64007;50.632;13.700;2023-04-15T03:57:41;0.75;;;0.57;;
75426;SDS011;64007;50.632;13.700;2023-04-15T04:00:07;3.47;;;0.45;;
75426;SDS011;64007;50.632;13.700;2023-04-15T04:02:34;2.33;;;0.90;;
75426;SDS011;64007;50.632;13.700;2023-04-15T04:05:00;7.65;;;1.00;;
75426;SDS011;64007;50.632;13.700;2023-04-15T04:07:26;8.23;;;1.30;;
75426;SDS011;64007;50.632;13.700;2023-04-15T04:09:52;3.65;;;1.00;;
75426;SDS011;64007;50.632;13.700;2023-04-15T04:12:18;14.10;;;1.77;;
75426;SDS011;64007;50.632;13.700;2023-04-15T04:14:44;5.63;;;1.20;;
75426;SDS011;64007;50.632;13.700;2023-04-15T04:17:09;3.70;;;1.15;;
75426;SDS011;64007;50.632;13.700;2023-04-15T04:19:36;9.13;;;1.30;;
75426;SDS011;64007;50.632;13.700;2023-04-15T04:22:01;3.70;;;1.23;;
75426;SDS011;64007;50.632;13.700;2023-04-15T04:24:27;5.78;;;1.10;;
75426;SDS011;64007;50.632;13.700;2023-04-15T04:26:52;4.05;;;1.08;;
75426;SDS011;64007;50.632;13.700;2023-04-15T04:29:18;4.50;;;1.60;;
75426;SDS011;64007;50.632;13.700;2023-04-15T04:31:44;8.20;;;2.00;;
75426;SDS011;64007;50.632;13.700;2023-04-15T04:34:10;9.93;;;2.00;;
75426;SDS011;64007;50.632;13.700;2023-04-15T04:36:36;6.00;;;1.83;;
75426;SDS011;64007;50.632;13.700;2023-04-15T04:39:02;6.70;;;2.30;;
75426;SDS011;64007;50.632;13.700;2023-04-15T04:41:28;6.50;;;1.85;;
75426;SDS011;64007;50.632;13.700;2023-04-15T04:43:54;3.72;;;1.80;;
75426;SDS011;64007;50.632;13.700;2023-04-15T04:46:19;6.15;;;1.77;;
75426;SDS011;64007;50.632;13.700;2023-04-15T04:48:46;2.30;;;1.50;;
75426;SDS011;64007;50.632;13.700;2023-04-15T04:51:11;2.80;;;1.95;;
75426;SDS011;64007;50.632;13.700;2023-04-15T04:53:37;2.78;;;1.33;;
75426;SDS011;64007;50.632;13.700;2023-04-15T04:56:03;1.58;;;1.08;;
75426;SDS011;64007;50.632;13.700;2023-04-15T04:58:29;4.30;;;1.15;;
75426;SDS011;64007;50.632;13.700;2023-04-15T05:00:55;1.15;;;0.95;;
75426;SDS011;64007;50.632;13.700;2023-04-15T05:03:21;8.23;;;4.03;;
75426;SDS011;64007;50.632;13.700;2023-04-15T05:05:46;8.82;;;4.15;;
75426;SDS011;64007;50.632;13.700;2023-04-15T05:08:14;6.13;;;3.13;;
75426;SDS011;64007;50.632;13.700;2023-04-15T05:10:40;7.32;;;3.25;;
75426;SDS011;64007;50.632;13.700;2023-04-15T05:13:06;3.80;;;2.38;;
75426;SDS011;64007;50.632;13.700;2023-04-15T05:15:31;5.07;;;2.13;;
75426;SDS011;64007;50.632;13.700;2023-04-15T05:17:59;4.35;;;1.70;;
75426;SDS011;64007;50.632;13.700;2023-04-15T05:20:25;7.78;;;3.67;;
75426;SDS011;64007;50.632;13.700;2023-04-15T05:22:50;6.05;;;3.40;;
75426;SDS011;64007;50.632;13.700;2023-04-15T05:25:16;6.60;;;3.65;;
75426;SDS011;64007;50.632;13.700;2023-04-15T05:27:42;5.55;;;2.83;;
75426;SDS011;64007;50.632;13.700;2023-04-15T05:30:08;8.10;;;3.03;;
75426;SDS011;64007;50.632;13.700;2023-04-15T05:32:34;8.65;;;3.67;;
75426;SDS011;64007;50.632;13.700;2023-04-15T05:35:00;6.35;;;3.15;;
75426;SDS011;64007;50.632;13.700;2023-04-15T05:37:26;6.82;;;3.38;;
75426;SDS011;64007;50.632;13.700;2023-04-15T05:39:51;7.05;;;3.03;;
75426;SDS011;64007;50.632;13.700;2023-04-15T05:42:17;13.95;;;5.18;;
75426;SDS011;64007;50.632;13.700;2023-04-15T05:44:43;12.00;;;5.05;;
75426;SDS011;64007;50.632;13.700;2023-04-15T05:47:09;10.20;;;4.43;;
75426;SDS011;64007;50.632;13.700;2023-04-15T05:49:35;12.80;;;5.18;;
75426;SDS011;64007;50.632;13.700;2023-04-15T05:52:01;17.58;;;6.32;;
75426;SDS011;64007;50.632;13.700;2023-04-15T05:54:26;10.38;;;4.72;;
75426;SDS011;64007;50.632;13.700;2023-04-15T05:56:52;10.35;;;4.40;;
75426;SDS011;64007;50.632;13.700;2023-04-15T05:59:18;9.20;;;3.60;;
75426;SDS011;64007;50.632;13.700;2023-04-15T06:01:44;8.45;;;4.47;;
75426;SDS011;64007;50.632;13.700;2023-04-15T06:04:10;6.10;;;3.45;;
75426;SDS011;64007;50.632;13.700;2023-04-15T06:06:38;7.75;;;3.78;;
75426;SDS011;64007;50.632;13.700;2023-04-15T06:09:04;10.30;;;4.10;;
75426;SDS011;64007;50.632;13.700;2023-04-15T06:11:30;8.27;;;3.58;;
75426;SDS011;64007;50.632;13.700;2023-04-15T06:13:56;4.80;;;3.22;;
75426;SDS011;64007;50.632;13.700;2023-04-15T06:16:22;8.32;;;3.33;;
75426;SDS011;64007;50.632;13.700;2023-04-15T06:18:48;5.93;;;3.40;;
75426;SDS011;64007;50.632;13.700;2023-04-15T06:21:14;6.93;;;3.45;;
75426;SDS011;64007;50.632;13.700;2023-04-15T06:23:40;6.50;;;3.40;;
75426;SDS011;64007;50.632;13.700;2023-04-15T06:26:06;4.80;;;3.20;;
75426;SDS011;64007;50.632;13.700;2023-04-15T06:28:32;4.05;;;3.08;;
75426;SDS011;64007;50.632;13.700;2023-04-15T06:30:58;6.82;;;4.18;;
75426;SDS011;64007;50.632;13.700;2023-04-15T06:33:25;11.27;;;6.35;;
75426;SDS011;64007;50.632;13.700;2023-04-15T06:35:51;3.95;;;2.70;;
75426;SDS011;64007;50.632;13.700;2023-04-15T06:38:17;4.03;;;2.17;;
75426;SDS011;64007;50.632;13.700;2023-04-15T06:40:42;4.15;;;2.72;;
75426;SDS011;64007;50.632;13.700;2023-04-15T06:43:08;5.15;;;3.00;;
75426;SDS011;64007;50.632;13.700;2023-04-15T06:45:34;9.52;;;5.82;;
75426;SDS011;64007;50.632;13.700;2023-04-15T06:48:00;6.15;;;4.40;;
75426;SDS011;64007;50.632;13.700;2023-04-15T06:52:47;4.10;;;2.80;;
75426;SDS011;64007;50.632;13.700;2023-04-15T06:55:13;7.85;;;3.15;;
75426;SDS011;64007;50.632;13.700;2023-04-15T06:57:39;4.00;;;3.33;;
75426;SDS011;64007;50.632;13.700;2023-04-15T07:00:05;4.55;;;3.70;;
75426;SDS011;64007;50.632;13.700;2023-04-15T07:02:31;4.95;;;3.70;;
75426;SDS011;64007;50.632;13.700;2023-04-15T07:04:57;6.95;;;4.15;;
75426;SDS011;64007;50.632;13.700;2023-04-15T07:07:23;9.48;;;5.85;;
75426;SDS011;64007;50.632;13.700;2023-04-15T07:09:50;5.65;;;4.35;;
75426;SDS011;64007;50.632;13.700;2023-04-15T07:12:18;6.18;;;4.10;;
75426;SDS011;64007;50.632;13.700;2023-04-15T07:14:44;5.53;;;3.70;;
75426;SDS011;64007;50.632;13.700;2023-04-15T07:17:09;5.90;;;3.92;;
75426;SDS011;64007;50.632;13.700;2023-04-15T07:19:36;5.43;;;3.70;;
75426;SDS011;64007;50.632;13.700;2023-04-15T07:22:02;5.82;;;3.47;;
75426;SDS011;64007;50.632;13.700;2023-04-15T07:24:28;4.30;;;3.42;;
75426;SDS011;64007;50.632;13.700;2023-04-15T07:26:54;8.00;;;4.30;;
75426;SDS011;64007;50.632;13.700;2023-04-15T07:29:22;8.85;;;5.50;;
75426;SDS011;64007;50.632;13.700;2023-04-15T07:31:47;8.95;;;5.20;;
75426;SDS011;64007;50.632;13.700;2023-04-15T07:34:13;7.03;;;5.20;;
75426;SDS011;64007;50.632;13.700;2023-04-15T07:36:39;9.98;;;5.35;;
75426;SDS011;64007;50.632;13.700;2023-04-15T07:39:04;8.05;;;5.55;;
75426;SDS011;64007;50.632;13.700;2023-04-15T07:41:30;8.43;;;5.93;;
75426;SDS011;64007;50.632;13.700;2023-04-15T07:43:56;9.35;;;6.00;;
75426;SDS011;64007;50.632;13.700;2023-04-15T07:46:22;9.88;;;6.25;;
75426;SDS011;64007;50.632;13.700;2023-04-15T07:48:49;8.68;;;5.75;;
75426;SDS011;64007;50.632;13.700;2023-04-15T07:51:15;8.18;;;5.65;;
75426;SDS011;64007;50.632;13.700;2023-04-15T07:53:42;6.90;;;4.90;;
75426;SDS011;64007;50.632;13.700;2023-04-15T07:56:08;7.40;;;4.78;;
75426;SDS011;64007;50.632;13.700;2023-04-15T07:58:34;7.05;;;4.88;;
75426;SDS011;64007;50.632;13.700;2023-04-15T08:01:00;8.70;;;4.95;;
75426;SDS011;64007;50.632;13.700;2023-04-15T08:03:26;7.22;;;4.40;;
75426;SDS011;64007;50.632;13.700;2023-04-15T08:05:52;6.00;;;4.07;;
75426;SDS011;64007;50.632;13.700;2023-04-15T08:08:18;6.70;;;4.00;;
75426;SDS011;64007;50.632;13.700;2023-04-15T08:10:44;5.57;;;3.80;;
75426;SDS011;64007;50.632;13.700;2023-04-15T08:13:10;10.93;;;4.03;;
75426;SDS011;64007;50.632;13.700;2023-04-15T08:15:36;8.75;;;4.45;;
75426;SDS011;64007;50.632;13.700;2023-04-15T08:18:02;5.18;;;3.80;;
75426;SDS011;64007;50.632;13.700;2023-04-15T08:20:28;5.38;;;4.20;;
75426;SDS011;64007;50.632;13.700;2023-04-15T08:22:54;8.75;;;3.40;;
75426;SDS011;64007;50.632;13.700;2023-04-15T08:25:20;5.45;;;3.60;;
75426;SDS011;64007;50.632;13.700;2023-04-15T08:27:46;5.47;;;3.50;;
75426;SDS011;64007;50.632;13.700;2023-04-15T08:30:12;7.32;;;3.70;;
75426;SDS011;64007;50.632;13.700;2023-04-15T08:32:38;5.63;;;3.40;;
75426;SDS011;64007;50.632;13.700;2023-04-15T08:35:04;5.22;;;3.42;;
75426;SDS011;64007;50.632;13.700;2023-04-15T08:37:30;5.28;;;3.38;;
75426;SDS011;64007;50.632;13.700;2023-04-15T08:39:56;5.82;;;3.80;;
75426;SDS011;64007;50.632;13.700;2023-04-15T08:42:27;4.88;;;3.75;;
75426;SDS011;64007;50.632;13.700;2023-04-15T08:44:58;9.10;;;3.80;;
75426;SDS011;64007;50.632;13.700;2023-04-15T08:47:27;8.25;;;3.95;;
75426;SDS011;64007;50.632;13.700;2023-04-15T08:49:54;6.03;;;3.60;;
75426;SDS011;64007;50.632;13.700;2023-04-15T08:52:25;6.15;;;3.38;;
75426;SDS011;64007;50.632;13.700;2023-04-15T08:54:51;4.15;;;2.90;;
75426;SDS011;64007;50.632;13.700;2023-04-15T08:57:24;4.13;;;2.80;;
75426;SDS011;64007;50.632;13.700;2023-04-15T08:59:52;6.07;;;2.85;;
75426;SDS011;64007;50.632;13.700;2023-04-15T09:02:20;4.47;;;2.95;;
75426;SDS011;64007;50.632;13.700;2023-04-15T09:04:46;4.47;;;3.47;;
75426;SDS011;64007;50.632;13.700;2023-04-15T09:07:12;6.47;;;3.60;;
75426;SDS011;64007;50.632;13.700;2023-04-15T09:09:37;5.15;;;3.65;;
75426;SDS011;64007;50.632;13.700;2023-04-15T09:12:04;5.35;;;3.10;;
75426;SDS011;64007;50.632;13.700;2023-04-15T09:14:30;5.88;;;2.97;;
75426;SDS011;64007;50.632;13.700;2023-04-15T09:16:58;4.13;;;2.72;;
75426;SDS011;64007;50.632;13.700;2023-04-15T09:19:27;3.70;;;2.90;;
75426;SDS011;64007;50.632;13.700;2023-04-15T09:21:55;3.67;;;2.97;;
75426;SDS011;64007;50.632;13.700;2023-04-15T09:24:22;4.03;;;2.60;;
75426;SDS011;64007;50.632;13.700;2023-04-15T09:26:51;4.40;;;2.92;;
75426;SDS011;64007;50.632;13.700;2023-04-15T09:29:19;4.25;;;2.70;;
75426;SDS011;64007;50.632;13.700;2023-04-15T09:31:45;4.95;;;3.00;;
75426;SDS011;64007;50.632;13.700;2023-04-15T09:34:11;3.85;;;2.67;;
75426;SDS011;64007;50.632;13.700;2023-04-15T09:36:39;6.03;;;3.72;;
75426;SDS011;64007;50.632;13.700;2023-04-15T09:39:17;4.72;;;2.97;;
75426;SDS011;64007;50.632;13.700;2023-04-15T09:41:43;4.43;;;2.75;;
75426;SDS011;64007;50.632;13.700;2023-04-15T09:44:24;4.55;;;2.55;;
75426;SDS011;64007;50.632;13.700;2023-04-15T09:46:51;4.13;;;2.53;;
75426;SDS011;64007;50.632;13.700;2023-04-15T09:49:17;3.50;;;2.40;;
75426;SDS011;64007;50.632;13.700;2023-04-15T09:51:42;2.92;;;2.50;;
75426;SDS011;64007;50.632;13.700;2023-04-15T09:54:08;4.50;;;2.15;;
75426;SDS011;64007;50.632;13.700;2023-04-15T09:56:35;2.20;;;1.90;;
75426;SDS011;64007;50.632;13.700;2023-04-15T09:59:05;4.18;;;2.30;;
75426;SDS011;64007;50.632;13.700;2023-04-15T10:01:32;2.97;;;2.20;;
75426;SDS011;64007;50.632;13.700;2023-04-15T10:03:58;2.97;;;2.30;;
75426;SDS011;64007;50.632;13.700;2023-04-15T10:06:28;6.10;;;3.00;;
75426;SDS011;64007;50.632;13.700;2023-04-15T10:08:54;3.85;;;2.97;;
75426;SDS011;64007;50.632;13.700;2023-04-15T10:11:22;4.40;;;2.72;;
75426;SDS011;64007;50.632;13.700;2023-04-15T10:13:49;5.40;;;3.40;;
75426;SDS011;64007;50.632;13.700;2023-04-15T10:16:17;3.58;;;2.40;;
75426;SDS011;64007;50.632;13.700;2023-04-15T10:18:44;11.93;;;6.20;;
75426;SDS011;64007;50.632;13.700;2023-04-15T10:21:12;9.48;;;5.70;;
75426;SDS011;64007;50.632;13.700;2023-04-15T10:23:40;12.50;;;6.53;;
75426;SDS011;64007;50.632;13.700;2023-04-15T10:26:06;10.52;;;5.10;;
75426;SDS011;64007;50.632;13.700;2023-04-15T10:28:33;6.75;;;4.43;;
75426;SDS011;64007;50.632;13.700;2023-04-15T10:30:59;5.13;;;3.45;;
75426;SDS011;64007;50.632;13.700;2023-04-15T10:33:26;6.35;;;3.40;;
75426;SDS011;64007;50.632;13.700;2023-04-15T10:35:53;3.20;;;2.38;;
75426;SDS011;64007;50.632;13.700;2023-04-15T10:38:39;7.32;;;3.00;;
75426;SDS011;64007;50.632;13.700;2023-04-15T10:41:22;5.60;;;3.35;;
75426;SDS011;64007;50.632;13.700;2023-04-15T10:43:54;4.78;;;2.78;;
75426;SDS011;64007;50.632;13.700;2023-04-15T10:46:22;4.82;;;2.97;;
75426;SDS011;64007;50.632;13.700;2023-04-15T10:51:39;6.07;;;3.00;;
75426;SDS011;64007;50.632;13.700;2023-04-15T10:54:12;3.83;;;2.50;;
75426;SDS011;64007;50.632;13.700;2023-04-15T10:57:34;4.25;;;2.65;;
75426;SDS011;64007;50.632;13.700;2023-04-15T11:05:17;5.25;;;2.80;;
75426;SDS011;64007;50.632;13.700;2023-04-15T11:12:46;5.38;;;2.60;;
75426;SDS011;64007;50.632;13.700;2023-04-15T11:18:19;4.10;;;2.00;;
75426;SDS011;64007;50.632;13.700;2023-04-15T11:20:53;4.07;;;2.10;;
75426;SDS011;64007;50.632;13.700;2023-04-15T11:23:28;2.95;;;2.38;;
75426;SDS011;64007;50.632;13.700;2023-04-15T11:25:56;3.25;;;2.00;;
75426;SDS011;64007;50.632;13.700;2023-04-15T11:28:25;2.53;;;1.80;;
75426;SDS011;64007;50.632;13.700;2023-04-15T11:30:52;4.75;;;1.75;;
75426;SDS011;64007;50.632;13.700;2023-04-15T11:33:20;3.00;;;1.98;;
75426;SDS011;64007;50.632;13.700;2023-04-15T11:35:46;2.97;;;1.70;;
75426;SDS011;64007;50.632;13.700;2023-04-15T11:38:13;2.67;;;1.70;;
75426;SDS011;64007;50.632;13.700;2023-04-15T11:40:41;5.80;;;3.33;;
75426;SDS011;64007;50.632;13.700;2023-04-15T11:43:08;2.42;;;1.80;;
75426;SDS011;64007;50.632;13.700;2023-04-15T11:45:36;8.52;;;2.85;;
75426;SDS011;64007;50.632;13.700;2023-04-15T11:48:09;9.73;;;4.35;;
75426;SDS011;64007;50.632;13.700;2023-04-15T11:50:37;4.88;;;2.45;;
75426;SDS011;64007;50.632;13.700;2023-04-15T11:53:10;4.10;;;2.20;;
75426;SDS011;64007;50.632;13.700;2023-04-15T11:55:41;3.35;;;2.17;;
75426;SDS011;64007;50.632;13.700;2023-04-15T11:58:19;3.05;;;2.05;;
75426;SDS011;64007;50.632;13.700;2023-04-15T12:03:27;2.83;;;1.67;;
75426;SDS011;64007;50.632;13.700;2023-04-15T12:06:35;2.92;;;1.98;;
75426;SDS011;64007;50.632;13.700;2023-04-15T12:08:58;2.30;;;1.50;;
75426;SDS011;64007;50.632;13.700;2023-04-15T12:11:45;2.55;;;1.63;;
75426;SDS011;64007;50.632;13.700;2023-04-15T12:14:15;4.88;;;2.05;;
75426;SDS011;64007;50.632;13.700;2023-04-15T12:16:45;3.72;;;2.45;;
75426;SDS011;64007;50.632;13.700;2023-04-15T12:21:40;5.03;;;1.63;;
75426;SDS011;64007;50.632;13.700;2023-04-15T12:24:09;2.85;;;1.70;;
75426;SDS011;64007;50.632;13.700;2023-04-15T12:26:37;2.33;;;1.55;;
75426;SDS011;64007;50.632;13.700;2023-04-15T12:29:09;3.13;;;1.70;;
75426;SDS011;64007;50.632;13.700;2023-04-15T12:31:36;2.10;;;1.55;;
75426;SDS011;64007;50.632;13.700;2023-04-15T12:34:10;2.38;;;1.42;;
75426;SDS011;64007;50.632;13.700;2023-04-15T12:36:36;2.65;;;1.35;;
75426;SDS011;64007;50.632;13.700;2023-04-15T12:39:02;2.55;;;1.70;;
75426;SDS011;64007;50.632;13.700;2023-04-15T12:41:29;1.67;;;1.40;;
75426;SDS011;64007;50.632;13.700;2023-04-15T12:43:55;2.13;;;1.45;;
75426;SDS011;64007;50.632;13.700;2023-04-15T12:46:21;2.22;;;1.60;;
75426;SDS011;64007;50.632;13.700;2023-04-15T12:48:47;2.50;;;1.70;;
75426;SDS011;64007;50.632;13.700;2023-04-15T12:51:15;2.00;;;1.40;;
75426;SDS011;64007;50.632;13.700;2023-04-15T12:53:41;4.38;;;1.80;;
75426;SDS011;64007;50.632;13.700;2023-04-15T12:56:06;2.00;;;1.50;;
75426;SDS011;64007;50.632;13.700;2023-04-15T12:58:32;2.97;;;2.00;;
75426;SDS011;64007;50.632;13.700;2023-04-15T13:00:58;3.47;;;1.60;;
75426;SDS011;64007;50.632;13.700;2023-04-15T13:03:24;2.50;;;1.77;;
75426;SDS011;64007;50.632;13.700;2023-04-15T13:05:49;3.40;;;1.70;;
75426;SDS011;64007;50.632;13.700;2023-04-15T13:08:15;6.53;;;2.38;;
75426;SDS011;64007;50.632;13.700;2023-04-15T13:10:41;2.80;;;1.80;;
75426;SDS011;64007;50.632;13.700;2023-04-15T13:13:07;5.47;;;4.13;;
75426;SDS011;64007;50.632;13.700;2023-04-15T13:15:33;3.60;;;2.72;;
75426;SDS011;64007;50.632;13.700;2023-04-15T13:17:59;2.95;;;1.50;;
75426;SDS011;64007;50.632;13.700;2023-04-15T13:20:25;2.30;;;1.80;;
75426;SDS011;64007;50.632;13.700;2023-04-15T13:22:52;1.77;;;1.42;;
75426;SDS011;64007;50.632;13.700;2023-04-15T13:25:18;2.20;;;1.70;;
75426;SDS011;64007;50.632;13.700;2023-04-15T13:27:44;3.78;;;1.80;;
75426;SDS011;64007;50.632;13.700;2023-04-15T13:30:10;4.57;;;1.50;;
75426;SDS011;64007;50.632;13.700;2023-04-15T13:32:36;2.65;;;1.73;;
75426;SDS011;64007;50.632;13.700;2023-04-15T13:35:01;2.75;;;1.70;;
75426;SDS011;64007;50.632;13.700;2023-04-15T13:37:28;3.63;;;1.80;;
75426;SDS011;64007;50.632;13.700;2023-04-15T13:39:54;2.20;;;1.70;;
75426;SDS011;64007;50.632;13.700;2023-04-15T13:42:21;2.70;;;1.60;;
75426;SDS011;64007;50.632;13.700;2023-04-15T13:44:48;2.60;;;1.70;;
75426;SDS011;64007;50.632;13.700;2023-04-15T13:47:16;2.72;;;1.70;;
75426;SDS011;64007;50.632;13.700;2023-04-15T13:49:43;3.75;;;1.63;;
75426;SDS011;64007;50.632;13.700;2023-04-15T13:52:08;1.83;;;1.60;;
75426;SDS011;64007;50.632;13.700;2023-04-15T13:54:35;1.75;;;1.45;;
75426;SDS011;64007;50.632;13.700;2023-04-15T13:57:01;2.45;;;1.60;;
75426;SDS011;64007;50.632;13.700;2023-04-15T13:59:26;2.55;;;1.60;;
75426;SDS011;64007;50.632;13.700;2023-04-15T14:01:52;3.08;;;2.00;;
75426;SDS011;64007;50.632;13.700;2023-04-15T14:04:18;4.35;;;1.60;;
75426;SDS011;64007;50.632;13.700;2023-04-15T14:06:44;2.40;;;1.77;;
75426;SDS011;64007;50.632;13.700;2023-04-15T14:09:09;3.65;;;1.60;;
75426;SDS011;64007;50.632;13.700;2023-04-15T14:11:37;2.50;;;1.65;;
75426;SDS011;64007;50.632;13.700;2023-04-15T14:14:03;3.38;;;1.77;;
75426;SDS011;64007;50.632;13.700;2023-04-15T14:16:31;3.05;;;2.00;;
75426;SDS011;64007;50.632;13.700;2023-04-15T14:18:57;5.40;;;2.00;;
75426;SDS011;64007;50.632;13.700;2023-04-15T14:21:24;2.10;;;1.60;;
75426;SDS011;64007;50.632;13.700;2023-04-15T14:23:52;2.78;;;1.88;;
75426;SDS011;64007;50.632;13.700;2023-04-15T14:26:18;2.25;;;1.70;;
75426;SDS011;64007;50.632;13.700;2023-04-15T14:28:44;3.35;;;2.10;;
75426;SDS011;64007;50.632;13.700;2023-04-15T14:31:09;2.42;;;1.98;;
75426;SDS011;64007;50.632;13.700;2023-04-15T14:33:35;3.50;;;2.22;;
75426;SDS011;64007;50.632;13.700;2023-04-15T14:36:01;9.30;;;2.33;;
75426;SDS011;64007;50.632;13.700;2023-04-15T14:38:26;3.78;;;2.08;;
75426;SDS011;64007;50.632;13.700;2023-04-15T14:40:52;4.57;;;2.58;;
75426;SDS011;64007;50.632;13.700;2023-04-15T14:43:19;2.95;;;2.38;;
75426;SDS011;64007;50.632;13.700;2023-04-15T14:45:45;3.85;;;2.67;;
75426;SDS011;64007;50.632;13.700;2023-04-15T14:48:10;5.20;;;2.40;;
75426;SDS011;64007;50.632;13.700;2023-04-15T14:50:37;6.43;;;2.88;;
75426;SDS011;64007;50.632;13.700;2023-04-15T14:53:03;3.78;;;2.65;;
75426;SDS011;64007;50.632;13.700;2023-04-15T14:55:29;3.15;;;2.33;;